createdAt,value
2022-09-30T00:00:25.202Z,63.19
2022-09-30T00:01:25.191Z,63.09
2022-09-30T00:02:25.146Z,63.09
2022-09-30T00:03:25.224Z,63.09
2022-09-30T00:04:25.131Z,63.09
2022-09-30T00:05:25.113Z,63.09
2022-09-30T00:06:25.135Z,63.09
2022-09-30T00:07:25.093Z,63.09
2022-09-30T00:08:25.083Z,63.09
2022-09-30T00:09:25.280Z,63.09
2022-09-30T00:10:25.064Z,63.09
2022-09-30T00:11:25.080Z,63.09
2022-09-30T00:12:25.042Z,62.99
2022-09-30T00:13:25.029Z,62.99
2022-09-30T00:14:25.020Z,62.99
2022-09-30T00:15:25.094Z,62.99
2022-09-30T00:16:25.064Z,62.99
2022-09-30T00:17:24.987Z,62.99
2022-09-30T00:18:24.977Z,62.99
2022-09-30T00:19:25.050Z,62.99
2022-09-30T00:20:24.956Z,62.99
2022-09-30T00:21:24.973Z,62.99
2022-09-30T00:22:24.937Z,62.99
2022-09-30T00:23:24.923Z,62.99
2022-09-30T00:24:24.920Z,62.99
2022-09-30T00:25:24.902Z,62.99
2022-09-30T00:26:24.926Z,62.99
2022-09-30T00:27:24.880Z,62.89
2022-09-30T00:28:24.870Z,62.99
2022-09-30T00:29:24.860Z,62.89
2022-09-30T00:30:24.852Z,62.89
2022-09-30T00:31:24.952Z,62.99
2022-09-30T00:32:24.829Z,63.09
2022-09-30T00:33:24.818Z,62.89
2022-09-30T00:34:24.808Z,62.99
2022-09-30T00:35:24.799Z,62.99
2022-09-30T00:36:24.820Z,62.99
2022-09-30T00:37:24.778Z,62.99
2022-09-30T00:38:24.766Z,62.99
2022-09-30T00:39:24.755Z,62.99
2022-09-30T00:40:24.745Z,62.89
2022-09-30T00:41:24.936Z,62.99
2022-09-30T00:42:24.725Z,62.89
2022-09-30T00:43:24.711Z,62.99
2022-09-30T00:44:24.703Z,62.89
2022-09-30T00:45:24.690Z,62.89
2022-09-30T00:46:24.825Z,62.89
2022-09-30T00:47:24.719Z,62.99
2022-09-30T00:48:24.662Z,62.99
2022-09-30T00:49:24.649Z,62.89
2022-09-30T00:50:24.639Z,62.89
2022-09-30T00:51:24.629Z,62.99
2022-09-30T00:52:24.650Z,62.99
2022-09-30T00:53:24.609Z,62.99
2022-09-30T00:54:24.598Z,62.99
2022-09-30T00:55:24.584Z,62.89
2022-09-30T00:56:24.574Z,62.89
2022-09-30T00:57:24.595Z,62.99
2022-09-30T00:58:24.554Z,62.89
2022-09-30T00:59:24.544Z,62.89
2022-09-30T01:00:24.579Z,62.99
2022-09-30T01:01:24.524Z,62.99
2022-09-30T01:02:24.569Z,62.99
2022-09-30T01:03:24.522Z,62.89
2022-09-30T01:04:24.489Z,62.99
2022-09-30T01:05:24.482Z,62.99
2022-09-30T01:06:24.467Z,62.99
2022-09-30T01:07:24.487Z,62.99
2022-09-30T01:08:24.451Z,62.99
2022-09-30T01:09:24.584Z,62.89
2022-09-30T01:10:24.426Z,62.89
2022-09-30T01:11:24.418Z,62.99
2022-09-30T01:12:24.437Z,62.89
2022-09-30T01:13:24.402Z,62.99
2022-09-30T01:14:24.384Z,62.89
2022-09-30T01:15:24.374Z,62.89
2022-09-30T01:16:24.386Z,62.89
2022-09-30T01:17:24.383Z,62.89
2022-09-30T01:18:24.341Z,62.99
2022-09-30T01:19:24.355Z,62.89
2022-09-30T01:20:24.319Z,62.89
2022-09-30T01:21:24.310Z,62.79
2022-09-30T01:22:24.335Z,62.89
2022-09-30T01:23:24.291Z,62.89
2022-09-30T01:24:24.278Z,62.89
2022-09-30T01:25:24.270Z,62.99
2022-09-30T01:26:24.256Z,62.89
2022-09-30T01:27:24.246Z,62.79
2022-09-30T01:28:24.264Z,62.89
2022-09-30T01:29:24.227Z,62.79
2022-09-30T01:30:24.215Z,62.89
2022-09-30T01:31:24.267Z,62.79
2022-09-30T01:32:24.196Z,62.89
2022-09-30T01:33:24.210Z,62.79
2022-09-30T01:34:24.171Z,62.99
2022-09-30T01:35:24.189Z,62.79
2022-09-30T01:36:24.151Z,62.89
2022-09-30T01:37:24.140Z,62.79
2022-09-30T01:38:24.160Z,62.79
2022-09-30T01:39:24.118Z,62.79
2022-09-30T01:40:24.107Z,62.79
2022-09-30T01:41:24.100Z,62.89
2022-09-30T01:42:24.086Z,62.79
2022-09-30T01:43:24.109Z,62.89
2022-09-30T01:44:24.066Z,62.99
2022-09-30T01:45:24.060Z,62.79
2022-09-30T01:46:24.109Z,62.79
2022-09-30T01:47:24.034Z,62.79
2022-09-30T01:48:24.051Z,62.79
2022-09-30T01:49:24.015Z,62.79
2022-09-30T01:50:24.001Z,62.79
2022-09-30T01:51:24.018Z,62.79
2022-09-30T01:52:23.981Z,62.79
2022-09-30T01:53:24.000Z,62.79
2022-09-30T01:54:23.959Z,62.79
2022-09-30T01:55:23.952Z,62.89
2022-09-30T01:56:23.939Z,62.79
2022-09-30T01:57:23.929Z,62.89
2022-09-30T01:58:23.947Z,62.79
2022-09-30T01:59:23.908Z,62.89
2022-09-30T02:00:23.901Z,62.79
2022-09-30T02:01:23.885Z,62.79
2022-09-30T02:02:23.917Z,62.79
2022-09-30T02:03:23.896Z,62.79
2022-09-30T02:04:23.853Z,62.79
2022-09-30T02:05:23.851Z,62.79
2022-09-30T02:06:23.840Z,62.79
2022-09-30T02:07:23.846Z,62.69
2022-09-30T02:08:23.845Z,62.69
2022-09-30T02:09:24.037Z,62.79
2022-09-30T02:10:23.790Z,62.79
2022-09-30T02:11:23.783Z,62.69
2022-09-30T02:12:23.770Z,62.69
2022-09-30T02:13:23.790Z,62.69
2022-09-30T02:14:23.753Z,62.69
2022-09-30T02:15:23.744Z,62.79
2022-09-30T02:16:23.790Z,62.79
2022-09-30T02:17:23.717Z,62.69
2022-09-30T02:18:23.706Z,62.69
2022-09-30T02:19:23.724Z,62.69
2022-09-30T02:20:23.684Z,62.69
2022-09-30T02:21:23.677Z,62.69
2022-09-30T02:22:23.664Z,62.69
2022-09-30T02:23:23.676Z,62.79
2022-09-30T02:24:23.672Z,62.69
2022-09-30T02:25:23.634Z,62.69
2022-09-30T02:26:23.620Z,62.79
2022-09-30T02:27:23.613Z,62.79
2022-09-30T02:28:23.599Z,62.79
2022-09-30T02:29:23.821Z,62.79
2022-09-30T02:30:23.582Z,62.69
2022-09-30T02:31:23.606Z,62.69
2022-09-30T02:32:23.559Z,62.79
2022-09-30T02:33:23.546Z,62.79
2022-09-30T02:34:23.566Z,62.79
2022-09-30T02:35:23.530Z,62.69
2022-09-30T02:36:23.515Z,62.69
2022-09-30T02:37:23.510Z,62.79
2022-09-30T02:38:23.494Z,62.79
2022-09-30T02:39:23.657Z,62.69
2022-09-30T02:40:23.477Z,62.69
2022-09-30T02:41:23.475Z,62.69
2022-09-30T02:42:23.451Z,62.69
2022-09-30T02:43:23.443Z,62.79
2022-09-30T02:44:23.460Z,62.79
2022-09-30T02:45:23.422Z,62.69
2022-09-30T02:46:23.450Z,62.69
2022-09-30T02:47:23.399Z,62.69
2022-09-30T02:48:23.387Z,62.79
2022-09-30T02:49:23.510Z,62.79
2022-09-30T02:50:23.368Z,62.69
2022-09-30T02:51:23.356Z,62.79
2022-09-30T02:52:23.346Z,62.79
2022-09-30T02:53:23.340Z,62.79
2022-09-30T02:54:23.362Z,62.79
2022-09-30T02:55:23.341Z,62.79
2022-09-30T02:56:23.303Z,62.79
2022-09-30T02:57:23.294Z,62.79
2022-09-30T02:58:23.282Z,62.69
2022-09-30T02:59:23.410Z,62.69
2022-09-30T03:00:23.290Z,62.79
2022-09-30T03:01:23.327Z,62.69
2022-09-30T03:02:23.387Z,62.79
2022-09-30T03:03:23.228Z,62.79
2022-09-30T03:04:23.217Z,62.69
2022-09-30T03:05:23.239Z,62.69
2022-09-30T03:06:23.196Z,62.69
2022-09-30T03:07:23.189Z,62.69
2022-09-30T03:08:23.175Z,62.69
2022-09-30T03:09:23.247Z,62.69
2022-09-30T03:10:23.183Z,62.59
2022-09-30T03:11:23.167Z,62.69
2022-09-30T03:12:23.134Z,62.79
2022-09-30T03:13:23.124Z,62.79
2022-09-30T03:14:23.115Z,62.69
2022-09-30T03:15:23.132Z,62.69
2022-09-30T03:16:23.135Z,62.69
2022-09-30T03:17:23.084Z,62.69
2022-09-30T03:18:23.070Z,62.59
2022-09-30T03:19:23.300Z,62.59
2022-09-30T03:20:23.077Z,62.69
2022-09-30T03:21:23.038Z,62.69
2022-09-30T03:22:23.032Z,62.69
2022-09-30T03:23:23.021Z,62.59
2022-09-30T03:24:23.005Z,62.69
2022-09-30T03:25:23.025Z,62.59
2022-09-30T03:26:22.987Z,62.69
2022-09-30T03:27:23.000Z,62.59
2022-09-30T03:28:22.966Z,62.69
2022-09-30T03:29:22.954Z,62.59
2022-09-30T03:30:24.669Z,62.59
2022-09-30T03:31:23.024Z,62.69
2022-09-30T03:32:22.921Z,62.69
2022-09-30T03:33:22.911Z,62.59
2022-09-30T03:34:22.901Z,62.69
2022-09-30T03:35:22.931Z,62.59
2022-09-30T03:36:22.879Z,62.59
2022-09-30T03:37:22.871Z,62.69
2022-09-30T03:38:22.857Z,62.69
2022-09-30T03:39:22.956Z,62.69
2022-09-30T03:40:22.836Z,62.59
2022-09-30T03:41:22.856Z,62.69
2022-09-30T03:42:23.284Z,62.79
2022-09-30T03:43:22.829Z,62.69
2022-09-30T03:44:22.793Z,62.69
2022-09-30T03:45:22.784Z,62.69
2022-09-30T03:46:22.857Z,62.69
2022-09-30T03:47:22.762Z,62.59
2022-09-30T03:48:22.755Z,62.69
2022-09-30T03:49:22.889Z,62.69
2022-09-30T03:50:22.732Z,62.59
2022-09-30T03:51:22.749Z,62.69
2022-09-30T03:52:22.709Z,62.69
2022-09-30T03:53:22.698Z,62.59
2022-09-30T03:54:22.693Z,62.59
2022-09-30T03:55:22.679Z,62.59
2022-09-30T03:56:22.691Z,62.49
2022-09-30T03:57:22.655Z,62.59
2022-09-30T03:58:22.647Z,62.59
2022-09-30T03:59:22.887Z,62.59
2022-09-30T04:00:22.632Z,62.49
2022-09-30T04:01:22.613Z,62.49
2022-09-30T04:02:22.690Z,62.49
2022-09-30T04:03:22.598Z,62.49
2022-09-30T04:04:22.583Z,62.59
2022-09-30T04:05:22.572Z,62.59
2022-09-30T04:06:22.567Z,62.49
2022-09-30T04:07:22.550Z,62.59
2022-09-30T04:08:22.574Z,62.49
2022-09-30T04:09:22.756Z,62.49
2022-09-30T04:10:22.518Z,62.49
2022-09-30T04:11:22.509Z,62.49
2022-09-30T04:12:22.503Z,62.49
2022-09-30T04:13:22.508Z,62.49
2022-09-30T04:14:22.484Z,62.59
2022-09-30T04:15:22.509Z,62.59
2022-09-30T04:16:22.538Z,62.49
2022-09-30T04:17:22.449Z,62.49
2022-09-30T04:18:22.436Z,62.59
2022-09-30T04:19:22.608Z,62.49
2022-09-30T04:20:22.470Z,62.49
2022-09-30T04:21:22.430Z,62.49
2022-09-30T04:22:26.342Z,62.59
2022-09-30T04:23:22.380Z,62.69
2022-09-30T04:24:22.372Z,62.59
2022-09-30T04:25:22.361Z,62.69
2022-09-30T04:26:22.386Z,62.59
2022-09-30T04:27:22.337Z,62.49
2022-09-30T04:28:22.328Z,62.49
2022-09-30T04:29:22.425Z,62.59
2022-09-30T04:30:25.592Z,62.49
2022-09-30T04:31:23.397Z,62.49
2022-09-30T04:32:22.285Z,62.49
2022-09-30T04:33:22.274Z,62.49
2022-09-30T04:34:22.265Z,62.49
2022-09-30T04:35:22.253Z,62.49
2022-09-30T04:36:22.245Z,62.49
2022-09-30T04:37:22.263Z,62.49
2022-09-30T04:38:22.226Z,62.49
2022-09-30T04:39:22.349Z,62.49
2022-09-30T04:40:22.202Z,62.49
2022-09-30T04:41:22.191Z,62.49
2022-09-30T04:42:22.208Z,62.49
2022-09-30T04:43:22.169Z,62.42
2022-09-30T04:44:22.158Z,62.59
2022-09-30T04:45:22.147Z,62.52
2022-09-30T04:46:22.139Z,62.39
2022-09-30T04:47:22.179Z,62.49
2022-09-30T04:48:22.120Z,62.59
2022-09-30T04:49:22.216Z,62.62
2022-09-30T04:50:22.098Z,62.49
2022-09-30T04:51:22.088Z,62.52
2022-09-30T04:52:22.103Z,62.59
2022-09-30T04:53:22.062Z,62.49
2022-09-30T04:54:22.053Z,62.52
2022-09-30T04:55:22.041Z,62.52
2022-09-30T04:56:22.033Z,62.49
2022-09-30T04:57:22.054Z,62.62
2022-09-30T04:58:22.013Z,62.52
2022-09-30T04:59:22.075Z,62.72
2022-09-30T05:00:21.989Z,62.62
2022-09-30T05:01:22.153Z,62.62
2022-09-30T05:02:22.043Z,62.62
2022-09-30T05:03:21.987Z,62.52
2022-09-30T05:04:21.949Z,62.62
2022-09-30T05:05:21.935Z,62.52
2022-09-30T05:06:21.927Z,62.62
2022-09-30T05:07:21.942Z,62.52
2022-09-30T05:08:21.907Z,62.72
2022-09-30T05:09:22.105Z,62.52
2022-09-30T05:10:21.888Z,62.62
2022-09-30T05:11:21.872Z,62.62
2022-09-30T05:12:21.891Z,62.52
2022-09-30T05:13:21.853Z,62.62
2022-09-30T05:14:21.840Z,62.52
2022-09-30T05:15:21.832Z,62.52
2022-09-30T05:16:21.867Z,62.52
2022-09-30T05:17:21.845Z,62.52
2022-09-30T05:18:21.797Z,62.52
2022-09-30T05:19:21.894Z,62.52
2022-09-30T05:20:21.777Z,62.52
2022-09-30T05:21:21.765Z,62.62
2022-09-30T05:22:21.755Z,62.62
2022-09-30T05:23:21.778Z,62.52
2022-09-30T05:24:21.735Z,62.62
2022-09-30T05:25:21.727Z,62.72
2022-09-30T05:26:21.711Z,62.62
2022-09-30T05:27:21.702Z,62.52
2022-09-30T05:28:21.725Z,62.52
2022-09-30T05:29:21.693Z,62.52
2022-09-30T05:30:21.671Z,62.52
2022-09-30T05:31:21.699Z,62.52
2022-09-30T05:32:21.648Z,62.52
2022-09-30T05:33:21.670Z,62.52
2022-09-30T05:34:21.629Z,62.62
2022-09-30T05:35:21.661Z,62.52
2022-09-30T05:36:21.607Z,62.62
2022-09-30T05:37:21.599Z,62.62
2022-09-30T05:38:21.616Z,62.52
2022-09-30T05:39:21.674Z,62.62
2022-09-30T05:40:21.566Z,62.62
2022-09-30T05:41:21.554Z,62.52
2022-09-30T05:42:21.546Z,62.52
2022-09-30T05:43:21.563Z,62.42
2022-09-30T05:44:21.522Z,62.52
2022-09-30T05:45:21.515Z,62.52
2022-09-30T05:46:21.563Z,62.52
2022-09-30T05:47:21.494Z,62.52
2022-09-30T05:48:21.510Z,62.52
2022-09-30T05:49:21.469Z,62.52
2022-09-30T05:50:21.459Z,62.62
2022-09-30T05:51:21.479Z,62.42
2022-09-30T05:52:21.438Z,62.52
2022-09-30T05:53:21.458Z,62.52
2022-09-30T05:54:21.416Z,62.42
2022-09-30T05:55:21.407Z,62.42
2022-09-30T05:56:21.398Z,62.42
2022-09-30T05:57:21.387Z,62.42
2022-09-30T05:58:21.411Z,62.52
2022-09-30T05:59:21.364Z,62.42
2022-09-30T06:00:21.352Z,62.42
2022-09-30T06:01:21.344Z,62.42
2022-09-30T06:02:21.472Z,62.32
2022-09-30T06:03:21.321Z,62.42
2022-09-30T06:04:21.340Z,62.42
2022-09-30T06:05:21.302Z,62.42
2022-09-30T06:06:21.293Z,62.52
2022-09-30T06:07:21.303Z,62.42
2022-09-30T06:08:21.267Z,62.32
2022-09-30T06:09:21.403Z,62.32
2022-09-30T06:10:21.248Z,62.42
2022-09-30T06:11:21.239Z,62.52
2022-09-30T06:12:21.226Z,62.52
2022-09-30T06:13:21.216Z,62.42
2022-09-30T06:14:21.236Z,62.42
2022-09-30T06:15:21.196Z,62.52
2022-09-30T06:16:21.253Z,62.42
2022-09-30T06:17:21.174Z,62.52
2022-09-30T06:18:21.161Z,62.42
2022-09-30T06:19:21.310Z,62.42
2022-09-30T06:20:21.145Z,62.42
2022-09-30T06:21:21.132Z,62.52
2022-09-30T06:22:21.120Z,62.42
2022-09-30T06:23:21.138Z,62.42
2022-09-30T06:24:21.129Z,62.32
2022-09-30T06:25:21.091Z,62.42
2022-09-30T06:26:21.078Z,62.42
2022-09-30T06:27:21.068Z,62.52
2022-09-30T06:28:21.056Z,62.52
2022-09-30T06:29:21.180Z,62.52
2022-09-30T06:30:21.035Z,62.62
2022-09-30T06:31:21.071Z,62.42
2022-09-30T06:32:21.015Z,62.42
2022-09-30T06:33:21.006Z,62.42
2022-09-30T06:34:21.030Z,62.42
2022-09-30T06:35:20.984Z,62.32
2022-09-30T06:36:20.972Z,62.42
2022-09-30T06:37:20.962Z,62.22
2022-09-30T06:38:20.951Z,62.12
2022-09-30T06:39:20.985Z,62.12
2022-09-30T06:40:20.958Z,61.61
2022-09-30T06:41:20.919Z,61.82
2022-09-30T06:42:20.908Z,61.71
2022-09-30T06:43:20.904Z,61.51
2022-09-30T06:44:20.887Z,61.61
2022-09-30T06:45:31.528Z,61.71
2022-09-30T06:46:27.224Z,61.71
2022-09-30T06:47:25.614Z,61.91
2022-09-30T06:48:31.264Z,62.12
2022-09-30T06:49:21.847Z,62.12
2022-09-30T06:50:25.387Z,62.12
2022-09-30T06:51:21.815Z,62.12
2022-09-30T06:52:20.804Z,62.22
2022-09-30T06:53:20.795Z,62.22
2022-09-30T06:54:20.781Z,62.22
2022-09-30T06:55:20.828Z,62.32
2022-09-30T06:56:20.760Z,62.32
2022-09-30T06:57:20.750Z,62.32
2022-09-30T06:58:20.741Z,62.22
2022-09-30T06:59:20.831Z,62.22
2022-09-30T07:00:20.747Z,62.22
2022-09-30T07:01:20.777Z,62.22
2022-09-30T07:02:20.746Z,62.22
2022-09-30T07:03:20.689Z,62.22
2022-09-30T07:04:20.676Z,62.22
2022-09-30T07:05:20.698Z,62.22
2022-09-30T07:06:20.654Z,62.32
2022-09-30T07:07:20.644Z,62.32
2022-09-30T07:08:20.635Z,62.42
2022-09-30T07:09:20.817Z,62.29
2022-09-30T07:10:20.643Z,62.29
2022-09-30T07:11:20.624Z,62.29
2022-09-30T07:12:20.595Z,62.39
2022-09-30T07:13:20.582Z,62.39
2022-09-30T07:14:20.569Z,62.29
2022-09-30T07:15:20.597Z,62.29
2022-09-30T07:16:20.607Z,62.29
2022-09-30T07:17:20.539Z,62.29
2022-09-30T07:18:20.536Z,62.29
2022-09-30T07:19:20.519Z,62.19
2022-09-30T07:20:20.523Z,62.19
2022-09-30T07:21:20.527Z,62.19
2022-09-30T07:22:20.486Z,62.08
2022-09-30T07:23:24.430Z,61.99
2022-09-30T07:24:21.466Z,61.99
2022-09-30T07:25:20.456Z,62.29
2022-09-30T07:26:20.470Z,62.39
2022-09-30T07:27:20.457Z,62.59
2022-09-30T07:28:20.420Z,62.59
2022-09-30T07:29:20.546Z,62.59
2022-09-30T07:30:26.800Z,62.69
2022-09-30T07:31:36.139Z,62.69
2022-09-30T07:32:21.427Z,62.69
2022-09-30T07:33:20.368Z,62.49
2022-09-30T07:34:20.357Z,62.49
2022-09-30T07:35:20.348Z,62.59
2022-09-30T07:36:20.367Z,62.49
2022-09-30T07:37:20.329Z,62.49
2022-09-30T07:38:20.315Z,62.59
2022-09-30T07:39:20.314Z,62.79
2022-09-30T07:40:20.297Z,62.76
2022-09-30T07:41:20.317Z,62.56
2022-09-30T07:42:22.503Z,62.66
2022-09-30T07:43:20.289Z,62.66
2022-09-30T07:44:20.255Z,62.66
2022-09-30T07:45:20.243Z,62.56
2022-09-30T07:46:20.262Z,62.56
2022-09-30T07:47:20.224Z,62.46
2022-09-30T07:48:21.232Z,62.46
2022-09-30T07:49:20.210Z,62.56
2022-09-30T07:50:20.189Z,62.56
2022-09-30T07:51:20.347Z,62.56
2022-09-30T07:52:20.168Z,62.66
2022-09-30T07:53:20.161Z,62.66
2022-09-30T07:54:20.155Z,62.56
2022-09-30T07:55:20.142Z,62.66
2022-09-30T07:56:20.126Z,62.66
2022-09-30T07:57:20.146Z,62.66
2022-09-30T07:58:20.104Z,62.56
2022-09-30T07:59:20.198Z,62.66
2022-09-30T08:00:43.440Z,62.76
2022-09-30T08:01:21.112Z,62.76
2022-09-30T08:02:20.198Z,62.76
2022-09-30T08:03:20.055Z,62.76
2022-09-30T08:04:20.041Z,62.66
2022-09-30T08:05:20.037Z,62.76
2022-09-30T08:06:20.021Z,62.76
2022-09-30T08:07:20.044Z,62.76
2022-09-30T08:08:19.999Z,62.76
2022-09-30T08:09:20.125Z,62.76
2022-09-30T08:11:19.974Z,62.76
2022-09-30T08:12:19.990Z,62.66
2022-09-30T08:13:19.952Z,62.66
2022-09-30T08:14:19.950Z,62.66
2022-09-30T08:15:19.948Z,62.36
2022-09-30T08:16:19.966Z,62.56
2022-09-30T08:17:19.936Z,62.46
2022-09-30T08:18:19.894Z,62.36
2022-09-30T08:19:19.888Z,62.36
2022-09-30T08:20:22.446Z,62.36
2022-09-30T08:21:19.866Z,61.46
2022-09-30T08:22:19.881Z,60.96
2022-09-30T08:23:19.844Z,61.35
2022-09-30T08:24:19.829Z,60.45
2022-09-30T08:25:19.820Z,60.25
2022-09-30T08:26:19.809Z,60.75
2022-09-30T08:27:19.901Z,60.68
2022-09-30T08:28:19.788Z,60.28
2022-09-30T08:29:24.960Z,60.48
2022-09-30T08:30:20.768Z,60.58
2022-09-30T08:31:19.874Z,60.28
2022-09-30T08:32:19.884Z,60.08
2022-09-30T08:33:19.738Z,60.08
2022-09-30T08:34:19.732Z,59.88
2022-09-30T08:35:19.725Z,59.88
2022-09-30T08:36:19.703Z,59.78
2022-09-30T08:37:19.729Z,59.88
2022-09-30T08:38:19.682Z,59.78
2022-09-30T08:39:19.677Z,59.78
2022-09-30T08:40:19.662Z,59.67
2022-09-30T08:41:19.652Z,59.67
2022-09-30T08:42:35.982Z,59.58
2022-09-30T08:43:20.628Z,59.47
2022-09-30T08:44:19.619Z,59.47
2022-09-30T08:45:19.607Z,59.38
2022-09-30T08:46:19.635Z,59.38
2022-09-30T08:47:19.608Z,59.27
2022-09-30T08:48:19.605Z,59.17
2022-09-30T08:49:19.565Z,59.47
2022-09-30T08:50:19.558Z,59.67
2022-09-30T08:51:19.543Z,59.88
2022-09-30T08:52:30.222Z,60.08
2022-09-30T08:53:20.552Z,60.18
2022-09-30T08:54:19.513Z,60.38
2022-09-30T08:55:19.503Z,60.58
2022-09-30T08:56:19.490Z,60.68
2022-09-30T08:57:19.479Z,60.78
2022-09-30T08:58:19.501Z,60.98
2022-09-30T08:59:19.459Z,61.08
2022-09-30T09:00:19.446Z,61.08
2022-09-30T09:01:19.480Z,60.98
2022-09-30T09:02:19.481Z,60.98
2022-09-30T09:03:19.469Z,61.08
2022-09-30T09:04:19.489Z,60.98
2022-09-30T09:05:19.398Z,61.05
2022-09-30T09:06:19.383Z,61.05
2022-09-30T09:07:19.374Z,61.05
2022-09-30T09:08:19.393Z,61.15
2022-09-30T09:09:19.427Z,60.55
2022-09-30T09:10:19.354Z,60.35
2022-09-30T09:11:19.333Z,60.08
2022-09-30T09:12:19.337Z,60.08
2022-09-30T09:13:19.343Z,60.08
2022-09-30T09:14:19.299Z,59.47
2022-09-30T09:15:19.289Z,59.88
2022-09-30T09:16:19.302Z,59.47
2022-09-30T09:17:19.355Z,59.58
2022-09-30T09:18:23.707Z,59.47
2022-09-30T09:19:20.270Z,58.67
2022-09-30T09:20:19.339Z,59.17
2022-09-30T09:21:19.225Z,59.38
2022-09-30T09:22:24.509Z,59.17
2022-09-30T09:23:20.238Z,59.38
2022-09-30T09:24:19.195Z,59.27
2022-09-30T09:25:19.188Z,59.17
2022-09-30T09:26:19.171Z,59.27
2022-09-30T09:27:19.312Z,59.47
2022-09-30T09:28:19.228Z,59.47
2022-09-30T09:29:19.200Z,59.38
2022-09-30T09:30:19.236Z,59.27
2022-09-30T09:31:19.202Z,59.47
2022-09-30T09:32:19.112Z,59.38
2022-09-30T09:33:19.128Z,59.27
2022-09-30T09:34:19.090Z,59.27
2022-09-30T09:35:19.201Z,59.27
2022-09-30T09:36:19.068Z,59.17
2022-09-30T09:37:19.056Z,59.27
2022-09-30T09:38:19.076Z,59.17
2022-09-30T09:39:19.155Z,58.57
2022-09-30T09:40:19.025Z,58.97
2022-09-30T09:41:19.020Z,58.97
2022-09-30T09:42:19.002Z,59.27
2022-09-30T09:43:19.022Z,59.47
2022-09-30T09:44:18.984Z,59.58
2022-09-30T09:45:18.980Z,59.67
2022-09-30T09:46:19.066Z,59.88
2022-09-30T09:47:18.950Z,59.98
2022-09-30T09:48:18.977Z,60.08
2022-09-30T09:49:18.928Z,60.08
2022-09-30T09:50:18.919Z,60.18
2022-09-30T09:51:18.934Z,60.28
2022-09-30T09:52:18.897Z,60.18
2022-09-30T09:53:18.886Z,60.18
2022-09-30T09:54:18.906Z,60.28
2022-09-30T09:55:18.867Z,60.38
2022-09-30T09:56:18.856Z,60.48
2022-09-30T09:57:18.848Z,60.68
2022-09-30T09:58:18.832Z,60.68
2022-09-30T09:59:20.154Z,60.65
2022-09-30T10:00:18.814Z,60.65
2022-09-30T10:01:18.834Z,60.65
2022-09-30T10:02:18.844Z,60.75
2022-09-30T10:03:18.782Z,60.75
2022-09-30T10:04:18.869Z,60.75
2022-09-30T10:05:18.758Z,60.75
2022-09-30T10:06:18.750Z,60.85
2022-09-30T10:07:18.772Z,60.85
2022-09-30T10:08:18.727Z,60.85
2022-09-30T10:09:18.865Z,60.85
2022-09-30T10:10:23.454Z,60.85
2022-09-30T10:11:19.694Z,60.85
2022-09-30T10:12:18.685Z,60.96
2022-09-30T10:13:18.677Z,60.96
2022-09-30T10:14:18.706Z,60.96
2022-09-30T10:15:18.655Z,61.05
2022-09-30T10:16:18.695Z,61.05
2022-09-30T10:17:18.637Z,61.05
2022-09-30T10:18:18.624Z,61.05
2022-09-30T10:19:18.611Z,61.05
2022-09-30T10:20:18.630Z,61.05
2022-09-30T10:21:18.592Z,61.15
2022-09-30T10:22:18.579Z,61.15
2022-09-30T10:23:18.620Z,61.15
2022-09-30T10:24:18.590Z,61.25
2022-09-30T10:25:18.577Z,61.25
2022-09-30T10:26:18.590Z,61.25
2022-09-30T10:27:18.530Z,61.25
2022-09-30T10:28:18.599Z,61.25
2022-09-30T10:29:18.530Z,61.35
2022-09-30T10:30:18.524Z,61.35
2022-09-30T10:31:18.590Z,61.35
2022-09-30T10:32:18.506Z,61.35
2022-09-30T10:33:18.465Z,61.35
2022-09-30T10:34:18.452Z,61.35
2022-09-30T10:35:18.474Z,61.35
2022-09-30T10:36:18.430Z,61.35
2022-09-30T10:37:18.420Z,61.35
2022-09-30T10:38:18.412Z,61.35
2022-09-30T10:39:18.422Z,61.35
2022-09-30T10:40:18.416Z,61.35
2022-09-30T10:41:18.379Z,61.35
2022-09-30T10:42:22.355Z,61.46
2022-09-30T10:43:19.357Z,61.35
2022-09-30T10:44:18.346Z,61.46
2022-09-30T10:45:18.372Z,61.46
2022-09-30T10:46:26.475Z,61.46
2022-09-30T10:47:19.320Z,61.46
2022-09-30T10:48:18.303Z,61.46
2022-09-30T10:49:18.293Z,61.46
2022-09-30T10:50:18.317Z,61.46
2022-09-30T10:51:18.272Z,61.46
2022-09-30T10:52:18.264Z,61.46
2022-09-30T10:53:18.253Z,61.46
2022-09-30T10:54:18.240Z,61.46
2022-09-30T10:55:18.873Z,61.55
2022-09-30T10:56:18.247Z,61.55
2022-09-30T10:57:18.210Z,61.55
2022-09-30T10:58:18.197Z,61.55
2022-09-30T10:59:18.194Z,61.55
2022-09-30T11:00:18.176Z,61.66
2022-09-30T11:01:18.224Z,61.76
2022-09-30T11:02:18.222Z,61.46
2022-09-30T11:03:18.311Z,61.66
2022-09-30T11:04:18.138Z,61.66
2022-09-30T11:05:18.129Z,61.76
2022-09-30T11:06:18.142Z,61.86
2022-09-30T11:07:18.105Z,61.86
2022-09-30T11:08:18.091Z,61.96
2022-09-30T11:09:18.081Z,61.96
2022-09-30T11:10:18.071Z,61.96
2022-09-30T11:11:18.116Z,61.96
2022-09-30T11:12:18.050Z,62.06
2022-09-30T11:13:18.042Z,62.06
2022-09-30T11:14:18.027Z,62.06
2022-09-30T11:15:18.019Z,62.16
2022-09-30T11:16:18.085Z,62.16
2022-09-30T11:17:21.892Z,62.26
2022-09-30T11:18:17.985Z,62.06
2022-09-30T11:19:17.979Z,62.16
2022-09-30T11:20:18.016Z,62.16
2022-09-30T11:21:17.984Z,62.16
2022-09-30T11:22:17.943Z,62.06
2022-09-30T11:23:17.936Z,62.06
2022-09-30T11:24:17.923Z,61.96
2022-09-30T11:25:17.916Z,62.06
2022-09-30T11:26:17.934Z,62.06
2022-09-30T11:27:17.996Z,62.16
2022-09-30T11:28:17.984Z,62.16
2022-09-30T11:29:17.873Z,62.16
2022-09-30T11:30:17.862Z,62.16
2022-09-30T11:31:17.924Z,62.26
2022-09-30T11:32:17.838Z,62.36
2022-09-30T11:33:17.831Z,62.26
2022-09-30T11:34:17.815Z,62.26
2022-09-30T11:35:17.807Z,62.06
2022-09-30T11:36:17.796Z,62.06
2022-09-30T11:37:17.815Z,62.06
2022-09-30T11:38:17.775Z,61.96
2022-09-30T11:39:17.764Z,62.06
2022-09-30T11:40:17.755Z,62.06
2022-09-30T11:41:17.747Z,62.06
2022-09-30T11:42:17.764Z,62.16
2022-09-30T11:43:17.831Z,61.96
2022-09-30T11:44:17.711Z,61.96
2022-09-30T11:45:17.704Z,61.86
2022-09-30T11:46:17.778Z,62.06
2022-09-30T11:47:17.731Z,62.16
2022-09-30T11:48:17.668Z,62.16
2022-09-30T11:49:17.661Z,62.26
2022-09-30T11:50:17.697Z,62.26
2022-09-30T11:51:17.643Z,62.16
2022-09-30T11:52:17.658Z,62.36
2022-09-30T11:53:17.618Z,62.26
2022-09-30T11:54:17.604Z,62.26
2022-09-30T11:55:17.595Z,62.49
2022-09-30T11:56:17.585Z,62.36
2022-09-30T11:57:17.603Z,62.26
2022-09-30T11:58:40.034Z,62.16
2022-09-30T11:59:18.576Z,62.19
2022-09-30T12:00:17.540Z,62.16
2022-09-30T12:01:17.531Z,62.16
2022-09-30T12:02:17.605Z,62.26
2022-09-30T12:03:17.536Z,62.36
2022-09-30T12:04:17.501Z,62.36
2022-09-30T12:05:17.492Z,62.36
2022-09-30T12:06:17.479Z,62.46
2022-09-30T12:07:17.500Z,62.56
2022-09-30T12:08:17.459Z,62.46
2022-09-30T12:09:17.449Z,62.46
2022-09-30T12:10:17.440Z,62.56
2022-09-30T12:11:17.427Z,62.56
2022-09-30T12:12:17.542Z,62.76
2022-09-30T12:13:17.439Z,62.76
2022-09-30T12:14:17.394Z,62.76
2022-09-30T12:15:17.407Z,62.66
2022-09-30T12:16:17.457Z,62.76
2022-09-30T12:17:17.364Z,62.76
2022-09-30T12:18:17.381Z,62.76
2022-09-30T12:19:19.634Z,62.76
2022-09-30T12:20:18.332Z,62.76
2022-09-30T12:21:17.323Z,62.76
2022-09-30T12:22:17.311Z,62.86
2022-09-30T12:23:17.335Z,62.86
2022-09-30T12:24:17.288Z,62.76
2022-09-30T12:25:17.280Z,62.76
2022-09-30T12:26:17.268Z,62.86
2022-09-30T12:27:17.260Z,62.96
2022-09-30T12:28:17.355Z,62.96
2022-09-30T12:29:17.235Z,63.06
2022-09-30T12:30:17.224Z,63.06
2022-09-30T12:31:17.259Z,63.06
2022-09-30T12:32:17.208Z,63.06
2022-09-30T12:33:17.221Z,63.17
2022-09-30T12:34:17.181Z,63.06
2022-09-30T12:35:17.175Z,63.17
2022-09-30T12:36:17.172Z,63.17
2022-09-30T12:37:17.153Z,63.17
2022-09-30T12:38:17.168Z,63.17
2022-09-30T12:39:17.132Z,63.17
2022-09-30T12:40:17.119Z,63.17
2022-09-30T12:41:17.108Z,63.17
2022-09-30T12:42:17.098Z,63.06
2022-09-30T12:43:17.117Z,63.17
2022-09-30T12:44:17.075Z,63.26
2022-09-30T12:45:17.066Z,63.06
2022-09-30T12:46:17.156Z,62.86
2022-09-30T12:47:17.073Z,62.76
2022-09-30T12:48:17.748Z,62.76
2022-09-30T12:49:17.024Z,62.86
2022-09-30T12:50:17.014Z,62.86
2022-09-30T12:51:17.005Z,62.86
2022-09-30T12:52:16.995Z,62.86
2022-09-30T12:53:16.981Z,62.96